sensor_id;sensor_type;location;lat;lon;timestamp;P1;durP1;ratioP1;P2;durP2;ratioP2
41885;SDS011;27567;43.084;25.616;2023-03-01T00:00:31;8.55;;;4.05;;
41885;SDS011;27567;43.084;25.616;2023-03-01T00:03:15;11.95;;;4.70;;
41885;SDS011;27567;43.084;25.616;2023-03-01T00:05:59;11.02;;;5.20;;
41885;SDS011;27567;43.084;25.616;2023-03-01T00:08:43;10.57;;;4.93;;
41885;SDS011;27567;43.084;25.616;2023-03-01T00:11:27;10.52;;;4.18;;
41885;SDS011;27567;43.084;25.616;2023-03-01T00:14:12;8.38;;;4.00;;
41885;SDS011;27567;43.084;25.616;2023-03-01T00:16:56;10.63;;;4.82;;
41885;SDS011;27567;43.084;25.616;2023-03-01T00:19:40;14.07;;;5.32;;
41885;SDS011;27567;43.084;25.616;2023-03-01T00:22:23;10.57;;;5.47;;
41885;SDS011;27567;43.084;25.616;2023-03-01T00:25:08;12.55;;;6.28;;
41885;SDS011;27567;43.084;25.616;2023-03-01T00:27:52;12.38;;;5.93;;
41885;SDS011;27567;43.084;25.616;2023-03-01T00:30:36;14.48;;;6.57;;
41885;SDS011;27567;43.084;25.616;2023-03-01T00:33:19;17.25;;;7.95;;
41885;SDS011;27567;43.084;25.616;2023-03-01T00:36:03;21.30;;;8.23;;
41885;SDS011;27567;43.084;25.616;2023-03-01T00:38:47;19.52;;;8.77;;
41885;SDS011;27567;43.084;25.616;2023-03-01T00:41:31;20.10;;;8.02;;
41885;SDS011;27567;43.084;25.616;2023-03-01T00:44:17;17.48;;;8.10;;
41885;SDS011;27567;43.084;25.616;2023-03-01T00:47:01;22.88;;;10.25;;
41885;SDS011;27567;43.084;25.616;2023-03-01T00:49:45;26.52;;;10.82;;
41885;SDS011;27567;43.084;25.616;2023-03-01T00:52:29;23.65;;;10.07;;
41885;SDS011;27567;43.084;25.616;2023-03-01T00:55:13;24.27;;;10.38;;
41885;SDS011;27567;43.084;25.616;2023-03-01T00:57:57;35.72;;;12.02;;
41885;SDS011;27567;43.084;25.616;2023-03-01T01:00:41;21.73;;;9.38;;
41885;SDS011;27567;43.084;25.616;2023-03-01T01:03:25;19.85;;;9.10;;
41885;SDS011;27567;43.084;25.616;2023-03-01T01:06:13;22.08;;;9.07;;
41885;SDS011;27567;43.084;25.616;2023-03-01T01:08:57;19.98;;;8.90;;
41885;SDS011;27567;43.084;25.616;2023-03-01T01:11:41;20.65;;;8.90;;
41885;SDS011;27567;43.084;25.616;2023-03-01T01:14:24;23.33;;;10.48;;
41885;SDS011;27567;43.084;25.616;2023-03-01T01:17:08;49.83;;;11.60;;
41885;SDS011;27567;43.084;25.616;2023-03-01T01:19:52;144.02;;;16.95;;
41885;SDS011;27567;43.084;25.616;2023-03-01T01:22:36;38.03;;;11.68;;
41885;SDS011;27567;43.084;25.616;2023-03-01T01:25:20;170.00;;;18.58;;
41885;SDS011;27567;43.084;25.616;2023-03-01T01:28:04;22.40;;;9.23;;
41885;SDS011;27567;43.084;25.616;2023-03-01T01:30:48;17.45;;;9.05;;
41885;SDS011;27567;43.084;25.616;2023-03-01T01:33:32;16.17;;;7.22;;
41885;SDS011;27567;43.084;25.616;2023-03-01T01:36:16;12.68;;;6.05;;
41885;SDS011;27567;43.084;25.616;2023-03-01T01:39:00;15.10;;;7.80;;
41885;SDS011;27567;43.084;25.616;2023-03-01T01:41:44;14.90;;;7.43;;
41885;SDS011;27567;43.084;25.616;2023-03-01T01:44:28;14.48;;;7.10;;
41885;SDS011;27567;43.084;25.616;2023-03-01T01:47:14;12.13;;;6.13;;
41885;SDS011;27567;43.084;25.616;2023-03-01T01:49:59;10.57;;;5.68;;
41885;SDS011;27567;43.084;25.616;2023-03-01T01:52:42;12.60;;;6.65;;
41885;SDS011;27567;43.084;25.616;2023-03-01T01:55:26;12.05;;;6.20;;
41885;SDS011;27567;43.084;25.616;2023-03-01T01:58:12;10.40;;;6.15;;
41885;SDS011;27567;43.084;25.616;2023-03-01T02:00:57;10.45;;;5.55;;
41885;SDS011;27567;43.084;25.616;2023-03-01T02:03:41;11.40;;;5.57;;
41885;SDS011;27567;43.084;25.616;2023-03-01T02:09:13;10.55;;;5.30;;
41885;SDS011;27567;43.084;25.616;2023-03-01T02:11:56;9.85;;;5.05;;
41885;SDS011;27567;43.084;25.616;2023-03-01T02:14:40;9.88;;;5.55;;
41885;SDS011;27567;43.084;25.616;2023-03-01T02:17:24;11.93;;;6.22;;
41885;SDS011;27567;43.084;25.616;2023-03-01T02:23:11;11.13;;;5.10;;
41885;SDS011;27567;43.084;25.616;2023-03-01T02:26:03;21.73;;;6.45;;
41885;SDS011;27567;43.084;25.616;2023-03-01T02:28:50;65.22;;;8.35;;
41885;SDS011;27567;43.084;25.616;2023-03-01T02:31:34;17.35;;;5.72;;
41885;SDS011;27567;43.084;25.616;2023-03-01T02:34:28;39.58;;;5.93;;
41885;SDS011;27567;43.084;25.616;2023-03-01T02:37:14;65.97;;;7.50;;
41885;SDS011;27567;43.084;25.616;2023-03-01T02:40:06;188.07;;;16.00;;
41885;SDS011;27567;43.084;25.616;2023-03-01T02:42:56;246.52;;;17.13;;
41885;SDS011;27567;43.084;25.616;2023-03-01T02:45:43;67.75;;;8.00;;
41885;SDS011;27567;43.084;25.616;2023-03-01T02:48:47;119.45;;;10.73;;
41885;SDS011;27567;43.084;25.616;2023-03-01T02:57:02;100.18;;;9.13;;
41885;SDS011;27567;43.084;25.616;2023-03-01T02:59:46;49.28;;;6.47;;
41885;SDS011;27567;43.084;25.616;2023-03-01T03:02:30;89.63;;;8.93;;
41885;SDS011;27567;43.084;25.616;2023-03-01T03:05:21;112.60;;;9.50;;
41885;SDS011;27567;43.084;25.616;2023-03-01T03:08:06;322.30;;;20.05;;
41885;SDS011;27567;43.084;25.616;2023-03-01T03:10:50;381.30;;;23.85;;
41885;SDS011;27567;43.084;25.616;2023-03-01T03:13:34;288.70;;;17.33;;
41885;SDS011;27567;43.084;25.616;2023-03-01T03:16:19;109.03;;;11.15;;
41885;SDS011;27567;43.084;25.616;2023-03-01T03:19:03;215.65;;;17.65;;
41885;SDS011;27567;43.084;25.616;2023-03-01T03:21:48;120.03;;;12.05;;
41885;SDS011;27567;43.084;25.616;2023-03-01T03:24:33;140.43;;;11.68;;
41885;SDS011;27567;43.084;25.616;2023-03-01T03:27:21;77.15;;;8.35;;
41885;SDS011;27567;43.084;25.616;2023-03-01T03:30:07;189.23;;;12.23;;
41885;SDS011;27567;43.084;25.616;2023-03-01T03:32:56;235.98;;;18.17;;
41885;SDS011;27567;43.084;25.616;2023-03-01T03:35:42;22.27;;;6.80;;
41885;SDS011;27567;43.084;25.616;2023-03-01T03:38:25;97.80;;;9.50;;
41885;SDS011;27567;43.084;25.616;2023-03-01T03:41:10;157.35;;;14.70;;
41885;SDS011;27567;43.084;25.616;2023-03-01T03:43:53;302.55;;;19.80;;
41885;SDS011;27567;43.084;25.616;2023-03-01T03:46:56;237.02;;;15.70;;
41885;SDS011;27567;43.084;25.616;2023-03-01T03:49:40;162.98;;;11.55;;
41885;SDS011;27567;43.084;25.616;2023-03-01T03:52:24;101.78;;;10.95;;
41885;SDS011;27567;43.084;25.616;2023-03-01T03:55:09;62.85;;;8.07;;
41885;SDS011;27567;43.084;25.616;2023-03-01T04:00:56;39.88;;;7.57;;
41885;SDS011;27567;43.084;25.616;2023-03-01T04:03:40;217.98;;;14.02;;
41885;SDS011;27567;43.084;25.616;2023-03-01T04:06:25;272.98;;;17.80;;
41885;SDS011;27567;43.084;25.616;2023-03-01T04:09:09;84.88;;;8.45;;
41885;SDS011;27567;43.084;25.616;2023-03-01T04:11:53;68.10;;;8.27;;
41885;SDS011;27567;43.084;25.616;2023-03-01T04:14:36;113.93;;;10.23;;
41885;SDS011;27567;43.084;25.616;2023-03-01T04:17:20;42.92;;;8.07;;
41885;SDS011;27567;43.084;25.616;2023-03-01T04:20:05;259.42;;;19.15;;
41885;SDS011;27567;43.084;25.616;2023-03-01T04:22:49;112.18;;;11.55;;
41885;SDS011;27567;43.084;25.616;2023-03-01T04:25:33;106.18;;;10.80;;
41885;SDS011;27567;43.084;25.616;2023-03-01T04:28:17;150.35;;;13.82;;
41885;SDS011;27567;43.084;25.616;2023-03-01T04:31:03;61.45;;;7.93;;
41885;SDS011;27567;43.084;25.616;2023-03-01T04:33:56;174.48;;;13.25;;
41885;SDS011;27567;43.084;25.616;2023-03-01T04:36:41;200.73;;;14.52;;
41885;SDS011;27567;43.084;25.616;2023-03-01T04:39:25;131.10;;;11.50;;
41885;SDS011;27567;43.084;25.616;2023-03-01T04:42:09;96.25;;;9.45;;
41885;SDS011;27567;43.084;25.616;2023-03-01T04:44:53;112.10;;;10.40;;
41885;SDS011;27567;43.084;25.616;2023-03-01T04:47:37;107.70;;;10.07;;
41885;SDS011;27567;43.084;25.616;2023-03-01T04:50:22;69.80;;;8.73;;
41885;SDS011;27567;43.084;25.616;2023-03-01T04:53:07;74.40;;;9.20;;
41885;SDS011;27567;43.084;25.616;2023-03-01T04:55:51;73.15;;;7.97;;
41885;SDS011;27567;43.084;25.616;2023-03-01T04:58:35;144.55;;;12.85;;
41885;SDS011;27567;43.084;25.616;2023-03-01T05:01:19;122.03;;;12.80;;
41885;SDS011;27567;43.084;25.616;2023-03-01T05:04:03;80.65;;;10.23;;
41885;SDS011;27567;43.084;25.616;2023-03-01T05:06:48;112.82;;;10.45;;
41885;SDS011;27567;43.084;25.616;2023-03-01T05:09:32;163.63;;;14.68;;
41885;SDS011;27567;43.084;25.616;2023-03-01T05:12:16;59.22;;;8.68;;
41885;SDS011;27567;43.084;25.616;2023-03-01T05:15:00;105.85;;;10.90;;
41885;SDS011;27567;43.084;25.616;2023-03-01T05:17:44;254.57;;;22.45;;
41885;SDS011;27567;43.084;25.616;2023-03-01T05:20:29;135.20;;;11.90;;
41885;SDS011;27567;43.084;25.616;2023-03-01T05:23:13;108.22;;;12.27;;
41885;SDS011;27567;43.084;25.616;2023-03-01T05:25:58;98.07;;;9.88;;
41885;SDS011;27567;43.084;25.616;2023-03-01T05:28:43;155.20;;;16.33;;
41885;SDS011;27567;43.084;25.616;2023-03-01T05:31:26;387.90;;;26.60;;
41885;SDS011;27567;43.084;25.616;2023-03-01T05:34:10;343.67;;;23.80;;
41885;SDS011;27567;43.084;25.616;2023-03-01T05:36:56;529.28;;;51.80;;
41885;SDS011;27567;43.084;25.616;2023-03-01T05:39:40;156.00;;;16.98;;
41885;SDS011;27567;43.084;25.616;2023-03-01T05:42:25;383.15;;;22.80;;
41885;SDS011;27567;43.084;25.616;2023-03-01T05:45:09;265.55;;;19.55;;
41885;SDS011;27567;43.084;25.616;2023-03-01T05:47:53;189.68;;;16.13;;
41885;SDS011;27567;43.084;25.616;2023-03-01T05:50:39;275.30;;;19.25;;
41885;SDS011;27567;43.084;25.616;2023-03-01T05:53:23;265.88;;;19.80;;
41885;SDS011;27567;43.084;25.616;2023-03-01T05:56:07;387.85;;;27.77;;
41885;SDS011;27567;43.084;25.616;2023-03-01T05:58:51;374.40;;;22.05;;
41885;SDS011;27567;43.084;25.616;2023-03-01T06:01:35;273.00;;;18.20;;
41885;SDS011;27567;43.084;25.616;2023-03-01T06:04:19;240.25;;;17.15;;
41885;SDS011;27567;43.084;25.616;2023-03-01T06:07:04;297.70;;;24.30;;
41885;SDS011;27567;43.084;25.616;2023-03-01T06:09:48;230.90;;;17.58;;
41885;SDS011;27567;43.084;25.616;2023-03-01T06:12:32;206.88;;;16.38;;
41885;SDS011;27567;43.084;25.616;2023-03-01T06:15:16;222.70;;;18.83;;
41885;SDS011;27567;43.084;25.616;2023-03-01T06:18:00;134.88;;;14.65;;
41885;SDS011;27567;43.084;25.616;2023-03-01T06:20:44;230.80;;;16.73;;
41885;SDS011;27567;43.084;25.616;2023-03-01T06:23:28;251.63;;;18.05;;
41885;SDS011;27567;43.084;25.616;2023-03-01T06:26:12;214.77;;;14.60;;
41885;SDS011;27567;43.084;25.616;2023-03-01T06:28:56;121.88;;;12.18;;
41885;SDS011;27567;43.084;25.616;2023-03-01T06:31:40;63.10;;;9.50;;
41885;SDS011;27567;43.084;25.616;2023-03-01T06:34:24;230.85;;;17.75;;
41885;SDS011;27567;43.084;25.616;2023-03-01T06:37:08;81.70;;;10.77;;
41885;SDS011;27567;43.084;25.616;2023-03-01T06:39:51;110.78;;;12.88;;
41885;SDS011;27567;43.084;25.616;2023-03-01T06:42:35;83.65;;;10.10;;
41885;SDS011;27567;43.084;25.616;2023-03-01T06:45:19;41.90;;;7.60;;
41885;SDS011;27567;43.084;25.616;2023-03-01T06:48:04;43.17;;;7.22;;
41885;SDS011;27567;43.084;25.616;2023-03-01T06:50:49;90.65;;;7.95;;
41885;SDS011;27567;43.084;25.616;2023-03-01T06:53:33;59.35;;;8.02;;
41885;SDS011;27567;43.084;25.616;2023-03-01T06:56:16;41.60;;;7.05;;
41885;SDS011;27567;43.084;25.616;2023-03-01T06:59:01;14.40;;;5.20;;
41885;SDS011;27567;43.084;25.616;2023-03-01T07:01:46;10.63;;;6.43;;
41885;SDS011;27567;43.084;25.616;2023-03-01T07:04:30;11.70;;;5.57;;
41885;SDS011;27567;43.084;25.616;2023-03-01T07:07:14;10.73;;;5.95;;
41885;SDS011;27567;43.084;25.616;2023-03-01T07:09:58;9.35;;;5.10;;
41885;SDS011;27567;43.084;25.616;2023-03-01T07:12:42;14.27;;;6.15;;
41885;SDS011;27567;43.084;25.616;2023-03-01T07:15:26;12.75;;;6.28;;
41885;SDS011;27567;43.084;25.616;2023-03-01T07:18:10;13.40;;;6.25;;
41885;SDS011;27567;43.084;25.616;2023-03-01T07:20:54;11.48;;;4.70;;
41885;SDS011;27567;43.084;25.616;2023-03-01T07:23:38;10.10;;;5.70;;
41885;SDS011;27567;43.084;25.616;2023-03-01T07:26:22;11.80;;;6.00;;
41885;SDS011;27567;43.084;25.616;2023-03-01T07:29:06;10.10;;;5.18;;
41885;SDS011;27567;43.084;25.616;2023-03-01T07:31:51;13.05;;;6.45;;
41885;SDS011;27567;43.084;25.616;2023-03-01T07:34:35;10.70;;;4.80;;
41885;SDS011;27567;43.084;25.616;2023-03-01T07:37:19;10.02;;;5.43;;
41885;SDS011;27567;43.084;25.616;2023-03-01T07:40:03;37.50;;;19.85;;
41885;SDS011;27567;43.084;25.616;2023-03-01T07:42:47;40.53;;;19.23;;
41885;SDS011;27567;43.084;25.616;2023-03-01T07:45:31;360.85;;;161.18;;
41885;SDS011;27567;43.084;25.616;2023-03-01T07:48:15;147.90;;;59.40;;
41885;SDS011;27567;43.084;25.616;2023-03-01T07:50:59;153.35;;;20.70;;
41885;SDS011;27567;43.084;25.616;2023-03-01T07:53:45;88.82;;;26.33;;
41885;SDS011;27567;43.084;25.616;2023-03-01T07:56:29;67.93;;;24.48;;
41885;SDS011;27567;43.084;25.616;2023-03-01T07:59:13;90.40;;;29.58;;
41885;SDS011;27567;43.084;25.616;2023-03-01T08:01:57;87.45;;;29.80;;
41885;SDS011;27567;43.084;25.616;2023-03-01T08:04:41;32.65;;;12.35;;
41885;SDS011;27567;43.084;25.616;2023-03-01T08:07:25;204.88;;;39.60;;
41885;SDS011;27567;43.084;25.616;2023-03-01T08:10:10;92.97;;;27.77;;
41885;SDS011;27567;43.084;25.616;2023-03-01T08:12:54;22.63;;;9.90;;
41885;SDS011;27567;43.084;25.616;2023-03-01T08:15:38;75.22;;;23.80;;
41885;SDS011;27567;43.084;25.616;2023-03-01T08:18:22;54.17;;;22.75;;
41885;SDS011;27567;43.084;25.616;2023-03-01T08:21:06;22.05;;;11.55;;
41885;SDS011;27567;43.084;25.616;2023-03-01T08:23:51;313.13;;;88.85;;
41885;SDS011;27567;43.084;25.616;2023-03-01T08:26:35;40.90;;;14.10;;
41885;SDS011;27567;43.084;25.616;2023-03-01T08:29:19;34.60;;;14.35;;
41885;SDS011;27567;43.084;25.616;2023-03-01T08:32:03;23.92;;;9.95;;
41885;SDS011;27567;43.084;25.616;2023-03-01T08:34:47;21.60;;;11.68;;
41885;SDS011;27567;43.084;25.616;2023-03-01T08:37:31;43.95;;;18.95;;
41885;SDS011;27567;43.084;25.616;2023-03-01T08:40:16;95.20;;;39.33;;
41885;SDS011;27567;43.084;25.616;2023-03-01T08:43:00;42.45;;;17.65;;
41885;SDS011;27567;43.084;25.616;2023-03-01T08:45:44;27.13;;;14.82;;
41885;SDS011;27567;43.084;25.616;2023-03-01T08:48:28;24.48;;;14.23;;
41885;SDS011;27567;43.084;25.616;2023-03-01T08:51:13;17.70;;;10.40;;
41885;SDS011;27567;43.084;25.616;2023-03-01T08:53:57;20.17;;;10.23;;
41885;SDS011;27567;43.084;25.616;2023-03-01T08:56:42;29.05;;;16.48;;
41885;SDS011;27567;43.084;25.616;2023-03-01T08:59:26;25.00;;;13.27;;
41885;SDS011;27567;43.084;25.616;2023-03-01T09:02:12;32.33;;;15.75;;
41885;SDS011;27567;43.084;25.616;2023-03-01T09:04:56;18.00;;;9.77;;
41885;SDS011;27567;43.084;25.616;2023-03-01T09:07:40;19.48;;;10.18;;
41885;SDS011;27567;43.084;25.616;2023-03-01T09:10:24;23.80;;;10.55;;
41885;SDS011;27567;43.084;25.616;2023-03-01T09:13:08;28.58;;;13.30;;
41885;SDS011;27567;43.084;25.616;2023-03-01T09:15:52;25.92;;;13.73;;
41885;SDS011;27567;43.084;25.616;2023-03-01T09:18:36;41.45;;;16.20;;
41885;SDS011;27567;43.084;25.616;2023-03-01T09:21:21;26.17;;;14.60;;
41885;SDS011;27567;43.084;25.616;2023-03-01T09:24:08;37.05;;;15.73;;
41885;SDS011;27567;43.084;25.616;2023-03-01T09:26:55;28.45;;;14.10;;
41885;SDS011;27567;43.084;25.616;2023-03-01T09:29:39;89.80;;;21.33;;
41885;SDS011;27567;43.084;25.616;2023-03-01T09:32:23;54.42;;;16.27;;
41885;SDS011;27567;43.084;25.616;2023-03-01T09:35:08;32.42;;;13.60;;
41885;SDS011;27567;43.084;25.616;2023-03-01T09:37:52;27.75;;;14.90;;
41885;SDS011;27567;43.084;25.616;2023-03-01T09:40:36;25.80;;;14.57;;
41885;SDS011;27567;43.084;25.616;2023-03-01T09:46:16;64.28;;;30.20;;
41885;SDS011;27567;43.084;25.616;2023-03-01T09:49:01;26.63;;;14.82;;
41885;SDS011;27567;43.084;25.616;2023-03-01T09:51:57;20.63;;;11.02;;
41885;SDS011;27567;43.084;25.616;2023-03-01T09:54:42;83.80;;;17.08;;
41885;SDS011;27567;43.084;25.616;2023-03-01T10:00:24;14.55;;;8.23;;
41885;SDS011;27567;43.084;25.616;2023-03-01T10:09:07;19.55;;;9.68;;
41885;SDS011;27567;43.084;25.616;2023-03-01T10:11:54;16.23;;;7.88;;
41885;SDS011;27567;43.084;25.616;2023-03-01T10:15:22;18.63;;;7.97;;
41885;SDS011;27567;43.084;25.616;2023-03-01T10:17:48;17.88;;;9.10;;
41885;SDS011;27567;43.084;25.616;2023-03-01T10:23:18;12.43;;;6.90;;
41885;SDS011;27567;43.084;25.616;2023-03-01T10:29:06;21.73;;;13.23;;
41885;SDS011;27567;43.084;25.616;2023-03-01T10:31:52;13.10;;;7.70;;
41885;SDS011;27567;43.084;25.616;2023-03-01T10:34:36;11.73;;;7.38;;
41885;SDS011;27567;43.084;25.616;2023-03-01T10:37:20;10.60;;;5.72;;
41885;SDS011;27567;43.084;25.616;2023-03-01T10:40:10;14.43;;;7.90;;
41885;SDS011;27567;43.084;25.616;2023-03-01T10:42:54;22.95;;;13.18;;
41885;SDS011;27567;43.084;25.616;2023-03-01T10:45:41;13.52;;;7.68;;
41885;SDS011;27567;43.084;25.616;2023-03-01T10:48:26;15.15;;;7.05;;
41885;SDS011;27567;43.084;25.616;2023-03-01T10:51:14;21.50;;;13.02;;
41885;SDS011;27567;43.084;25.616;2023-03-01T10:54:00;17.17;;;10.25;;
41885;SDS011;27567;43.084;25.616;2023-03-01T10:56:46;20.95;;;10.48;;
41885;SDS011;27567;43.084;25.616;2023-03-01T10:59:34;15.20;;;7.47;;
41885;SDS011;27567;43.084;25.616;2023-03-01T11:02:29;11.32;;;7.35;;
41885;SDS011;27567;43.084;25.616;2023-03-01T11:07:57;19.80;;;11.90;;
41885;SDS011;27567;43.084;25.616;2023-03-01T11:10:41;20.08;;;11.35;;
41885;SDS011;27567;43.084;25.616;2023-03-01T11:13:25;14.20;;;8.30;;
41885;SDS011;27567;43.084;25.616;2023-03-01T11:16:10;12.02;;;6.47;;
41885;SDS011;27567;43.084;25.616;2023-03-01T11:18:59;15.90;;;8.25;;
41885;SDS011;27567;43.084;25.616;2023-03-01T11:24:41;15.27;;;9.00;;
41885;SDS011;27567;43.084;25.616;2023-03-01T11:27:36;14.40;;;8.45;;
41885;SDS011;27567;43.084;25.616;2023-03-01T11:30:37;14.88;;;8.82;;
41885;SDS011;27567;43.084;25.616;2023-03-01T11:36:10;15.73;;;10.10;;
41885;SDS011;27567;43.084;25.616;2023-03-01T11:38:56;16.70;;;10.48;;
41885;SDS011;27567;43.084;25.616;2023-03-01T11:41:41;12.60;;;8.23;;
41885;SDS011;27567;43.084;25.616;2023-03-01T11:44:26;18.45;;;8.80;;
41885;SDS011;27567;43.084;25.616;2023-03-01T11:47:15;18.27;;;11.10;;
41885;SDS011;27567;43.084;25.616;2023-03-01T11:53:01;11.48;;;6.88;;
41885;SDS011;27567;43.084;25.616;2023-03-01T12:01:58;24.05;;;9.80;;
41885;SDS011;27567;43.084;25.616;2023-03-01T12:10:36;18.92;;;11.65;;
41885;SDS011;27567;43.084;25.616;2023-03-01T12:16:38;20.33;;;12.25;;
41885;SDS011;27567;43.084;25.616;2023-03-01T12:19:36;15.18;;;9.40;;
41885;SDS011;27567;43.084;25.616;2023-03-01T12:22:30;13.75;;;7.13;;
41885;SDS011;27567;43.084;25.616;2023-03-01T12:28:19;32.70;;;8.07;;
41885;SDS011;27567;43.084;25.616;2023-03-01T12:40:26;13.10;;;6.18;;
41885;SDS011;27567;43.084;25.616;2023-03-01T12:48:46;13.30;;;6.20;;
41885;SDS011;27567;43.084;25.616;2023-03-01T12:51:31;14.48;;;6.93;;
41885;SDS011;27567;43.084;25.616;2023-03-01T12:54:19;31.35;;;7.80;;
41885;SDS011;27567;43.084;25.616;2023-03-01T13:03:04;18.25;;;9.48;;
41885;SDS011;27567;43.084;25.616;2023-03-01T13:08:49;15.07;;;8.52;;
41885;SDS011;27567;43.084;25.616;2023-03-01T13:11:40;17.65;;;8.70;;
41885;SDS011;27567;43.084;25.616;2023-03-01T13:17:20;21.00;;;8.50;;
41885;SDS011;27567;43.084;25.616;2023-03-01T13:20:13;17.65;;;7.50;;
41885;SDS011;27567;43.084;25.616;2023-03-01T13:23:03;13.88;;;7.47;;
41885;SDS011;27567;43.084;25.616;2023-03-01T13:26:05;17.08;;;8.50;;
41885;SDS011;27567;43.084;25.616;2023-03-01T13:28:51;14.60;;;8.07;;
41885;SDS011;27567;43.084;25.616;2023-03-01T13:34:44;14.75;;;7.30;;
41885;SDS011;27567;43.084;25.616;2023-03-01T13:37:29;15.80;;;7.85;;
41885;SDS011;27567;43.084;25.616;2023-03-01T13:43:23;14.43;;;7.22;;
41885;SDS011;27567;43.084;25.616;2023-03-01T13:46:21;15.73;;;7.07;;
41885;SDS011;27567;43.084;25.616;2023-03-01T13:49:09;13.15;;;6.35;;
41885;SDS011;27567;43.084;25.616;2023-03-01T13:51:56;14.70;;;6.85;;
41885;SDS011;27567;43.084;25.616;2023-03-01T13:54:40;16.52;;;7.15;;
41885;SDS011;27567;43.084;25.616;2023-03-01T13:57:26;16.95;;;6.93;;
41885;SDS011;27567;43.084;25.616;2023-03-01T14:00:25;16.10;;;6.50;;
41885;SDS011;27567;43.084;25.616;2023-03-01T14:06:04;14.80;;;7.10;;
41885;SDS011;27567;43.084;25.616;2023-03-01T14:09:00;15.68;;;7.72;;
41885;SDS011;27567;43.084;25.616;2023-03-01T14:14:42;17.80;;;8.10;;
41885;SDS011;27567;43.084;25.616;2023-03-01T14:20:17;19.45;;;9.68;;
41885;SDS011;27567;43.084;25.616;2023-03-01T14:23:02;15.88;;;8.18;;
41885;SDS011;27567;43.084;25.616;2023-03-01T14:25:55;16.73;;;7.65;;
41885;SDS011;27567;43.084;25.616;2023-03-01T14:28:39;17.42;;;8.45;;
41885;SDS011;27567;43.084;25.616;2023-03-01T14:34:21;23.35;;;8.90;;
41885;SDS011;27567;43.084;25.616;2023-03-01T14:37:17;19.25;;;8.88;;
41885;SDS011;27567;43.084;25.616;2023-03-01T14:40:03;16.90;;;7.57;;
41885;SDS011;27567;43.084;25.616;2023-03-01T14:42:47;14.38;;;7.10;;
41885;SDS011;27567;43.084;25.616;2023-03-01T14:45:31;18.13;;;7.78;;
41885;SDS011;27567;43.084;25.616;2023-03-01T14:48:15;16.83;;;7.15;;
41885;SDS011;27567;43.084;25.616;2023-03-01T14:50:59;22.30;;;7.93;;
41885;SDS011;27567;43.084;25.616;2023-03-01T14:53:44;17.00;;;8.73;;
41885;SDS011;27567;43.084;25.616;2023-03-01T14:56:28;19.95;;;9.10;;
41885;SDS011;27567;43.084;25.616;2023-03-01T14:59:26;23.67;;;9.85;;
41885;SDS011;27567;43.084;25.616;2023-03-01T15:02:15;17.48;;;8.70;;
41885;SDS011;27567;43.084;25.616;2023-03-01T15:05:01;17.35;;;8.52;;
41885;SDS011;27567;43.084;25.616;2023-03-01T15:07:46;16.30;;;8.30;;
41885;SDS011;27567;43.084;25.616;2023-03-01T15:10:34;21.90;;;9.50;;
41885;SDS011;27567;43.084;25.616;2023-03-01T15:13:25;17.55;;;7.82;;
41885;SDS011;27567;43.084;25.616;2023-03-01T15:16:10;17.77;;;8.68;;
41885;SDS011;27567;43.084;25.616;2023-03-01T15:18:56;18.05;;;8.27;;
41885;SDS011;27567;43.084;25.616;2023-03-01T15:21:42;19.42;;;9.63;;
41885;SDS011;27567;43.084;25.616;2023-03-01T15:24:27;17.58;;;8.27;;
41885;SDS011;27567;43.084;25.616;2023-03-01T15:27:14;19.27;;;8.52;;
41885;SDS011;27567;43.084;25.616;2023-03-01T15:29:59;22.23;;;9.25;;
41885;SDS011;27567;43.084;25.616;2023-03-01T15:32:45;21.75;;;8.68;;
41885;SDS011;27567;43.084;25.616;2023-03-01T15:38:50;19.02;;;9.25;;
41885;SDS011;27567;43.084;25.616;2023-03-01T15:41:29;18.65;;;9.77;;
41885;SDS011;27567;43.084;25.616;2023-03-01T15:44:17;18.40;;;8.98;;
41885;SDS011;27567;43.084;25.616;2023-03-01T15:47:04;19.90;;;9.65;;
41885;SDS011;27567;43.084;25.616;2023-03-01T15:49:50;24.95;;;9.63;;
41885;SDS011;27567;43.084;25.616;2023-03-01T15:52:36;19.15;;;10.45;;
41885;SDS011;27567;43.084;25.616;2023-03-01T15:55:26;19.67;;;8.23;;
41885;SDS011;27567;43.084;25.616;2023-03-01T15:58:13;18.42;;;8.45;;
41885;SDS011;27567;43.084;25.616;2023-03-01T16:00:58;17.60;;;9.68;;
41885;SDS011;27567;43.084;25.616;2023-03-01T16:03:42;23.17;;;10.00;;
41885;SDS011;27567;43.084;25.616;2023-03-01T16:06:26;25.73;;;10.77;;
41885;SDS011;27567;43.084;25.616;2023-03-01T16:09:10;23.08;;;10.40;;
41885;SDS011;27567;43.084;25.616;2023-03-01T16:11:56;28.05;;;11.05;;
41885;SDS011;27567;43.084;25.616;2023-03-01T16:14:40;23.92;;;10.30;;
41885;SDS011;27567;43.084;25.616;2023-03-01T16:17:24;21.25;;;9.48;;
41885;SDS011;27567;43.084;25.616;2023-03-01T16:20:09;21.25;;;10.32;;
41885;SDS011;27567;43.084;25.616;2023-03-01T16:22:53;21.55;;;10.13;;
41885;SDS011;27567;43.084;25.616;2023-03-01T16:25:37;19.38;;;9.73;;
41885;SDS011;27567;43.084;25.616;2023-03-01T16:28:21;25.85;;;11.30;;
41885;SDS011;27567;43.084;25.616;2023-03-01T16:31:05;26.38;;;12.63;;
41885;SDS011;27567;43.084;25.616;2023-03-01T16:33:49;22.33;;;10.30;;
41885;SDS011;27567;43.084;25.616;2023-03-01T16:36:34;18.90;;;9.75;;
41885;SDS011;27567;43.084;25.616;2023-03-01T16:39:18;18.30;;;9.05;;
41885;SDS011;27567;43.084;25.616;2023-03-01T16:42:02;21.80;;;10.50;;
41885;SDS011;27567;43.084;25.616;2023-03-01T16:44:46;19.10;;;9.32;;
41885;SDS011;27567;43.084;25.616;2023-03-01T16:47:30;20.35;;;9.32;;
41885;SDS011;27567;43.084;25.616;2023-03-01T16:50:14;19.08;;;9.30;;
41885;SDS011;27567;43.084;25.616;2023-03-01T16:52:58;19.83;;;9.27;;
41885;SDS011;27567;43.084;25.616;2023-03-01T16:55:42;20.35;;;9.40;;
41885;SDS011;27567;43.084;25.616;2023-03-01T16:58:28;24.50;;;9.98;;
41885;SDS011;27567;43.084;25.616;2023-03-01T17:03:56;23.48;;;11.60;;
41885;SDS011;27567;43.084;25.616;2023-03-01T17:06:40;23.33;;;11.32;;
41885;SDS011;27567;43.084;25.616;2023-03-01T17:09:24;30.95;;;14.23;;
41885;SDS011;27567;43.084;25.616;2023-03-01T17:12:08;24.73;;;10.55;;
41885;SDS011;27567;43.084;25.616;2023-03-01T17:14:52;22.73;;;10.57;;
41885;SDS011;27567;43.084;25.616;2023-03-01T17:17:36;22.40;;;10.40;;
41885;SDS011;27567;43.084;25.616;2023-03-01T17:20:20;30.10;;;13.57;;
41885;SDS011;27567;43.084;25.616;2023-03-01T17:23:03;27.38;;;12.70;;
41885;SDS011;27567;43.084;25.616;2023-03-01T17:25:48;27.02;;;11.27;;
41885;SDS011;27567;43.084;25.616;2023-03-01T17:28:33;22.95;;;10.07;;
41885;SDS011;27567;43.084;25.616;2023-03-01T17:31:18;21.85;;;11.63;;
41885;SDS011;27567;43.084;25.616;2023-03-01T17:34:02;26.63;;;12.85;;
41885;SDS011;27567;43.084;25.616;2023-03-01T17:36:46;23.33;;;11.10;;
41885;SDS011;27567;43.084;25.616;2023-03-01T17:39:32;25.30;;;11.07;;
41885;SDS011;27567;43.084;25.616;2023-03-01T17:42:18;21.70;;;11.10;;
41885;SDS011;27567;43.084;25.616;2023-03-01T17:45:06;24.45;;;11.18;;
41885;SDS011;27567;43.084;25.616;2023-03-01T17:47:50;21.88;;;10.98;;
41885;SDS011;27567;43.084;25.616;2023-03-01T17:50:35;22.83;;;11.48;;